createdAt,value
2023-04-15T00:01:38.065Z,7.67
2023-04-15T00:04:06.012Z,7.65
2023-04-15T00:06:33.622Z,7.62
2023-04-15T00:09:01.819Z,7.61
2023-04-15T00:11:30.326Z,7.55
2023-04-15T00:13:58.608Z,7.17
2023-04-15T00:16:26.742Z,7.41
2023-04-15T00:18:54.851Z,7.04
2023-04-15T00:21:22.359Z,7.20
2023-04-15T00:23:52.728Z,7.30
2023-04-15T00:26:20.920Z,7.31
2023-04-15T00:28:48.947Z,7.31
2023-04-15T00:31:16.747Z,7.29
2023-04-15T00:33:44.775Z,7.41
2023-04-15T00:36:12.221Z,7.39
2023-04-15T00:38:39.702Z,7.15
2023-04-15T00:41:07.938Z,7.38
2023-04-15T00:43:35.490Z,7.34
2023-04-15T00:46:05.998Z,7.32
2023-04-15T00:48:33.916Z,7.27
2023-04-15T00:51:02.029Z,7.11
2023-04-15T00:53:29.530Z,7.17
2023-04-15T00:55:57.297Z,7.16
2023-04-15T00:58:25.071Z,7.13
2023-04-15T01:00:54.483Z,6.78
2023-04-15T01:03:22.801Z,7.09
2023-04-15T01:05:51.098Z,7.11
2023-04-15T01:08:18.830Z,7.16
2023-04-15T01:10:46.892Z,7.18
2023-04-15T01:13:14.309Z,6.95
2023-04-15T01:15:42.803Z,7.21
2023-04-15T01:18:11.100Z,7.18
2023-04-15T01:20:38.955Z,7.14
2023-04-15T01:23:06.491Z,7.07
2023-04-15T01:25:34.811Z,7.03
2023-04-15T01:28:03.353Z,6.97
2023-04-15T01:30:35.583Z,6.90
2023-04-15T01:33:03.449Z,6.87
2023-04-15T01:35:31.044Z,6.83
2023-04-15T01:38:08.510Z,6.52
2023-04-15T01:40:36.321Z,6.48
2023-04-15T01:43:03.977Z,6.76
2023-04-15T01:45:31.774Z,6.73
2023-04-15T01:47:59.550Z,6.75
2023-04-15T01:50:27.163Z,6.54
2023-04-15T01:52:56.117Z,6.75
2023-04-15T01:55:24.904Z,6.84
2023-04-15T01:57:52.483Z,6.90
2023-04-15T02:00:22.381Z,6.90
2023-04-15T02:02:50.735Z,6.93
2023-04-15T02:05:18.194Z,6.94
2023-04-15T02:07:48.618Z,6.92
2023-04-15T02:10:16.866Z,6.87
2023-04-15T02:12:44.404Z,6.84
2023-04-15T02:15:12.205Z,6.81
2023-04-15T02:17:40.046Z,6.72
2023-04-15T02:20:08.955Z,6.67
2023-04-15T02:22:36.489Z,6.53
2023-04-15T02:25:04.515Z,6.60
2023-04-15T02:27:32.977Z,6.58
2023-04-15T02:30:00.613Z,6.53
2023-04-15T02:32:29.214Z,6.47
2023-04-15T02:34:56.741Z,6.47
2023-04-15T02:37:27.258Z,6.43
2023-04-15T02:39:56.223Z,6.41
2023-04-15T02:42:23.782Z,6.38
2023-04-15T02:44:51.318Z,6.32
2023-04-15T02:47:19.222Z,6.25
2023-04-15T02:49:46.745Z,6.25
2023-04-15T02:52:15.026Z,6.07
2023-04-15T02:54:42.798Z,5.99
2023-04-15T02:57:11.703Z,5.94
2023-04-15T02:59:39.526Z,6.00
2023-04-15T03:02:08.597Z,5.73
2023-04-15T03:04:36.269Z,5.97
2023-04-15T03:07:04.773Z,5.98
2023-04-15T03:09:33.198Z,5.96
2023-04-15T03:12:02.712Z,5.66
2023-04-15T03:14:30.514Z,5.95
2023-04-15T03:16:59.497Z,5.63
2023-04-15T03:19:26.918Z,5.93
2023-04-15T03:21:54.386Z,5.64
2023-04-15T03:24:22.330Z,5.88
2023-04-15T03:26:49.796Z,5.86
2023-04-15T03:29:17.422Z,5.85
2023-04-15T03:31:45.606Z,5.85
2023-04-15T03:34:13.006Z,5.77
2023-04-15T03:36:40.680Z,5.56
2023-04-15T03:39:08.848Z,5.43
2023-04-15T03:41:36.430Z,5.49
2023-04-15T03:44:04.413Z,5.26
2023-04-15T03:46:32.387Z,5.52
2023-04-15T03:49:00.064Z,5.48
2023-04-15T03:51:28.400Z,5.46
2023-04-15T03:53:56.120Z,5.48
2023-04-15T03:56:23.489Z,5.41
2023-04-15T03:58:51.181Z,5.45
2023-04-15T04:01:19.516Z,5.33
2023-04-15T04:03:47.484Z,5.17
2023-04-15T04:06:15.737Z,5.33
2023-04-15T04:08:43.601Z,5.44
2023-04-15T04:11:11.723Z,5.55
2023-04-15T04:13:39.203Z,5.66
2023-04-15T04:16:07.177Z,5.74
2023-04-15T04:18:35.025Z,5.80
2023-04-15T04:21:02.829Z,5.89
2023-04-15T04:23:30.539Z,5.68
2023-04-15T04:25:58.274Z,6.04
2023-04-15T04:28:25.857Z,6.07
2023-04-15T04:30:53.280Z,6.09
2023-04-15T04:33:21.017Z,6.25
2023-04-15T04:35:48.461Z,6.33
2023-04-15T04:38:16.003Z,6.15
2023-04-15T04:40:43.822Z,6.50
2023-04-15T04:43:11.345Z,6.57
2023-04-15T04:45:38.800Z,6.72
2023-04-15T04:48:08.678Z,6.81
2023-04-15T04:50:36.970Z,6.59
2023-04-15T04:53:04.450Z,6.87
2023-04-15T04:55:32.433Z,6.94
2023-04-15T04:58:00.049Z,6.88
2023-04-15T05:00:27.518Z,7.02
2023-04-15T05:02:55.613Z,7.01
2023-04-15T05:05:23.210Z,6.85
2023-04-15T05:07:50.932Z,7.25
2023-04-15T05:10:18.736Z,7.32
2023-04-15T05:12:46.293Z,7.39
2023-04-15T05:15:13.721Z,7.44
2023-04-15T05:17:41.604Z,7.50
2023-04-15T05:20:09.761Z,7.51
2023-04-15T05:22:37.465Z,7.59
2023-04-15T05:25:05.520Z,7.78
2023-04-15T05:27:33.039Z,7.52
2023-04-15T05:30:00.559Z,7.84
2023-04-15T05:32:28.375Z,7.84
2023-04-15T05:34:55.861Z,7.79
2023-04-15T05:37:23.333Z,7.78
2023-04-15T05:39:51.196Z,7.86
2023-04-15T05:42:18.661Z,7.97
2023-04-15T05:44:46.169Z,7.71
2023-04-15T05:47:13.988Z,8.13
2023-04-15T05:49:41.431Z,8.19
2023-04-15T05:52:09.006Z,8.22
2023-04-15T05:54:37.254Z,8.25
2023-04-15T05:57:04.753Z,8.36
2023-04-15T05:59:32.714Z,8.64
2023-04-15T06:02:00.582Z,8.73
2023-04-15T06:04:28.725Z,8.84
2023-04-15T06:06:56.239Z,9.07
2023-04-15T06:09:23.866Z,9.07
2023-04-15T06:11:52.399Z,9.23
2023-04-15T06:14:19.941Z,9.40
2023-04-15T06:16:47.368Z,9.33
2023-04-15T06:19:16.024Z,9.57
2023-04-15T06:21:44.423Z,9.70
2023-04-15T06:24:12.499Z,9.81
2023-04-15T06:26:40.201Z,9.90
2023-04-15T06:29:07.594Z,9.98
2023-04-15T06:31:35.056Z,10.07
2023-04-15T06:34:02.922Z,10.02
2023-04-15T06:36:30.504Z,10.27
2023-04-15T06:38:58.222Z,10.23
2023-04-15T06:41:26.169Z,10.44
2023-04-15T06:43:53.934Z,10.61
2023-04-15T06:46:21.445Z,10.61
2023-04-15T06:48:49.491Z,10.75
2023-04-15T06:51:16.917Z,10.69
2023-04-15T06:53:48.914Z,10.78
2023-04-15T06:56:16.604Z,10.66
2023-04-15T06:58:44.022Z,10.82
2023-04-15T07:01:12.278Z,10.89
2023-04-15T07:03:40.074Z,10.64
2023-04-15T07:06:08.783Z,10.93
2023-04-15T07:08:36.433Z,11.01
2023-04-15T07:11:04.411Z,10.72
2023-04-15T07:13:32.890Z,11.32
2023-04-15T07:16:00.843Z,11.67
2023-04-15T07:18:28.666Z,11.59
2023-04-15T07:20:56.240Z,11.91
2023-04-15T07:23:23.698Z,11.87
2023-04-15T07:25:52.257Z,11.81
2023-04-15T07:28:19.702Z,11.52
2023-04-15T07:30:47.172Z,11.76
2023-04-15T07:33:15.799Z,11.76
2023-04-15T07:35:43.587Z,11.84
2023-04-15T07:38:13.604Z,11.69
2023-04-15T07:40:42.447Z,11.74
2023-04-15T07:43:10.849Z,11.75
2023-04-15T07:45:38.481Z,11.92
2023-04-15T07:48:06.881Z,12.09
2023-04-15T07:50:34.338Z,12.29
2023-04-15T07:53:01.806Z,12.67
2023-04-15T07:55:30.701Z,12.95
2023-04-15T07:57:58.217Z,13.14
2023-04-15T08:00:26.906Z,13.27
2023-04-15T08:02:57.578Z,13.35
2023-04-15T08:05:25.938Z,13.16
2023-04-15T08:07:53.440Z,13.46
2023-04-15T08:10:21.495Z,13.38
2023-04-15T08:12:49.587Z,13.45
2023-04-15T08:15:17.700Z,13.53
2023-04-15T08:17:45.603Z,13.48
2023-04-15T08:20:13.479Z,13.85
2023-04-15T08:22:41.585Z,13.82
2023-04-15T08:25:10.293Z,14.05
2023-04-15T08:27:37.819Z,14.09
2023-04-15T08:30:06.072Z,14.32
2023-04-15T08:32:33.912Z,14.39
2023-04-15T08:35:01.821Z,14.44
2023-04-15T08:37:29.439Z,14.55
2023-04-15T08:39:57.275Z,14.64
2023-04-15T08:42:37.474Z,14.76
2023-04-15T08:45:05.938Z,14.81
2023-04-15T08:47:34.393Z,14.32
2023-04-15T08:50:04.434Z,14.54
2023-04-15T08:52:32.631Z,14.39
2023-04-15T08:55:01.044Z,14.67
2023-04-15T08:57:29.502Z,14.61
2023-04-15T08:59:57.746Z,14.63
2023-04-15T09:02:27.387Z,14.63
2023-04-15T09:04:55.174Z,14.83
2023-04-15T09:07:22.925Z,14.91
2023-04-15T09:09:51.503Z,15.33
2023-04-15T09:12:18.985Z,15.47
2023-04-15T09:14:48.159Z,15.18
2023-04-15T09:17:20.630Z,15.44
2023-04-15T09:19:48.736Z,15.10
2023-04-15T09:22:16.668Z,15.04
2023-04-15T09:24:44.200Z,15.09
2023-04-15T09:27:16.320Z,14.75
2023-04-15T09:29:43.725Z,14.78
2023-04-15T09:32:15.641Z,14.74
2023-04-15T09:34:44.560Z,14.54
2023-04-15T09:37:24.640Z,14.80
2023-04-15T09:39:59.201Z,14.65
2023-04-15T09:42:28.050Z,14.91
2023-04-15T09:44:55.580Z,15.12
2023-04-15T09:47:32.905Z,14.94
2023-04-15T09:50:01.705Z,15.08
2023-04-15T09:52:30.362Z,15.05
2023-04-15T09:54:59.399Z,14.88
2023-04-15T09:57:36.237Z,14.87
2023-04-15T10:00:09.047Z,15.11
2023-04-15T10:02:39.960Z,15.13
2023-04-15T10:05:10.836Z,15.18
2023-04-15T10:07:41.159Z,15.43
2023-04-15T10:10:09.614Z,15.18
2023-04-15T10:12:41.746Z,15.65
2023-04-15T10:15:16.534Z,15.84
2023-04-15T10:17:44.991Z,15.92
2023-04-15T10:20:15.037Z,15.98
2023-04-15T10:22:46.651Z,15.95
2023-04-15T10:25:15.972Z,16.31
2023-04-15T10:27:43.630Z,16.25
2023-04-15T10:30:12.226Z,16.52
2023-04-15T10:32:40.964Z,16.34
2023-04-15T10:35:09.571Z,16.16
2023-04-15T10:37:38.611Z,16.54
2023-04-15T10:40:36.020Z,16.69
2023-04-15T10:43:03.868Z,16.30
2023-04-15T10:45:39.700Z,16.40
2023-04-15T10:48:08.560Z,16.75
2023-04-15T10:50:37.735Z,17.12
2023-04-15T10:53:05.683Z,16.84
2023-04-15T10:55:34.106Z,16.88
2023-04-15T10:58:03.075Z,16.93
2023-04-15T11:00:32.767Z,16.84
2023-04-15T11:03:07.909Z,16.85
2023-04-15T11:05:41.633Z,17.33
2023-04-15T11:08:10.765Z,17.30
2023-04-15T11:10:38.585Z,17.01
2023-04-15T11:13:17.208Z,16.62
2023-04-15T11:15:46.153Z,16.57
2023-04-15T11:18:16.629Z,16.29
2023-04-15T11:20:50.534Z,16.51
2023-04-15T11:23:20.123Z,16.47
2023-04-15T11:25:48.744Z,16.21
2023-04-15T11:28:16.568Z,15.97
2023-04-15T11:30:44.755Z,15.88
2023-04-15T11:33:13.811Z,15.80
2023-04-15T11:35:42.409Z,15.73
2023-04-15T11:38:12.384Z,15.52
2023-04-15T11:40:41.009Z,15.34
2023-04-15T11:43:10.490Z,15.26
2023-04-15T11:45:48.157Z,15.23
2023-04-15T11:48:15.892Z,15.13
2023-04-15T11:50:43.769Z,15.08
2023-04-15T11:53:13.335Z,15.05
2023-04-15T11:55:46.375Z,14.91
2023-04-15T11:58:23.382Z,15.08
2023-04-15T12:00:55.501Z,14.90
2023-04-15T12:03:30.607Z,14.97
2023-04-15T12:06:03.785Z,14.79
2023-04-15T12:09:10.123Z,14.77
2023-04-15T12:11:53.072Z,14.91
2023-04-15T12:14:26.552Z,16.12
2023-04-15T12:16:58.105Z,16.51
2023-04-15T12:19:30.571Z,16.55
2023-04-15T12:22:18.623Z,16.53
2023-04-15T12:24:48.766Z,16.77
2023-04-15T12:27:17.400Z,17.21
2023-04-15T12:29:45.154Z,17.83
2023-04-15T12:32:15.147Z,18.05
2023-04-15T12:34:45.678Z,17.69
2023-04-15T12:37:14.409Z,18.30
2023-04-15T12:39:44.387Z,18.53
2023-04-15T12:42:13.021Z,18.83
2023-04-15T12:44:40.741Z,18.29
2023-04-15T12:47:09.563Z,18.48
2023-04-15T12:49:37.802Z,18.01
2023-04-15T12:52:05.776Z,18.57
2023-04-15T12:54:33.462Z,18.33
2023-04-15T12:57:01.121Z,17.41
2023-04-15T12:59:29.200Z,18.23
2023-04-15T13:01:57.060Z,18.20
2023-04-15T13:04:24.839Z,17.79
2023-04-15T13:06:52.736Z,18.25
2023-04-15T13:09:20.226Z,17.84
2023-04-15T13:11:47.712Z,17.76
2023-04-15T13:14:15.817Z,17.24
2023-04-15T13:16:43.292Z,17.24
2023-04-15T13:19:10.811Z,16.99
2023-04-15T13:21:38.641Z,16.98
2023-04-15T13:24:07.490Z,16.60
2023-04-15T13:26:35.174Z,16.18
2023-04-15T13:29:02.989Z,16.27
2023-04-15T13:31:31.170Z,16.03
2023-04-15T13:33:58.589Z,16.11
2023-04-15T13:36:27.320Z,15.81
2023-04-15T13:38:54.868Z,15.88
2023-04-15T13:41:22.282Z,16.06
2023-04-15T13:43:50.000Z,15.98
2023-04-15T13:46:17.555Z,15.91
2023-04-15T13:48:45.595Z,15.96
2023-04-15T13:51:13.289Z,16.00
2023-04-15T13:53:41.095Z,15.94
2023-04-15T13:56:09.149Z,15.84
2023-04-15T13:58:38.078Z,15.83
2023-04-15T14:01:07.107Z,15.74
2023-04-15T14:03:36.599Z,15.83
2023-04-15T14:06:05.751Z,15.71
2023-04-15T14:08:33.888Z,15.75
2023-04-15T14:11:01.725Z,15.79
2023-04-15T14:13:29.506Z,15.76
2023-04-15T14:15:57.464Z,15.60
2023-04-15T14:18:25.623Z,15.60
2023-04-15T14:20:53.538Z,15.49
2023-04-15T14:23:21.029Z,15.49
2023-04-15T14:25:48.838Z,15.42
2023-04-15T14:28:16.780Z,15.56
2023-04-15T14:30:44.376Z,15.15
2023-04-15T14:33:12.670Z,15.31
2023-04-15T14:35:40.140Z,15.35
2023-04-15T14:38:10.827Z,15.48
2023-04-15T14:40:39.053Z,15.10
2023-04-15T14:43:06.599Z,15.37
2023-04-15T14:45:34.843Z,15.26
2023-04-15T14:48:03.078Z,15.14
2023-04-15T14:50:30.570Z,15.19
2023-04-15T14:52:58.892Z,15.12
2023-04-15T14:55:26.679Z,14.95
2023-04-15T14:57:54.133Z,15.12
2023-04-15T15:00:21.666Z,15.31
2023-04-15T15:02:49.659Z,15.42
2023-04-15T15:05:17.638Z,15.35
2023-04-15T15:07:45.310Z,15.36
2023-04-15T15:10:13.224Z,15.48
2023-04-15T15:12:40.952Z,15.55
2023-04-15T15:15:24.920Z,15.61
2023-04-15T15:17:56.810Z,15.69
2023-04-15T15:20:24.994Z,15.54
2023-04-15T15:22:52.512Z,15.52
2023-04-15T15:25:20.477Z,15.69
2023-04-15T15:27:48.043Z,15.61
2023-04-15T15:30:15.688Z,15.49
2023-04-15T15:32:43.780Z,15.38
2023-04-15T15:35:11.560Z,15.25
2023-04-15T15:37:39.037Z,15.24
2023-04-15T15:40:07.930Z,15.31
2023-04-15T15:42:36.036Z,15.29
2023-04-15T15:45:04.714Z,15.24
2023-04-15T15:47:32.498Z,15.13
2023-04-15T15:50:02.335Z,14.99
2023-04-15T15:52:31.287Z,14.94
2023-04-15T15:54:58.995Z,14.95
2023-04-15T15:57:26.495Z,14.63
2023-04-15T16:00:04.753Z,14.73
2023-04-15T16:03:04.509Z,14.69
2023-04-15T16:05:25.865Z,14.50
2023-04-15T16:07:53.582Z,14.17
2023-04-15T16:10:21.054Z,14.11
2023-04-15T16:12:49.697Z,14.01
2023-04-15T16:15:17.191Z,14.21
2023-04-15T16:17:44.629Z,14.15
2023-04-15T16:20:12.415Z,14.13
2023-04-15T16:22:39.956Z,14.02
2023-04-15T16:25:07.590Z,13.96
2023-04-15T16:27:43.500Z,13.61
2023-04-15T16:30:22.227Z,13.82
2023-04-15T16:32:50.231Z,13.77
2023-04-15T16:35:18.201Z,13.63
2023-04-15T16:37:45.872Z,13.51
2023-04-15T16:40:13.755Z,13.58
2023-04-15T16:42:43.722Z,13.54
2023-04-15T16:45:11.660Z,13.49
2023-04-15T16:47:39.535Z,13.18
2023-04-15T16:50:07.945Z,13.22
2023-04-15T16:52:36.081Z,13.25
2023-04-15T16:55:05.190Z,13.20
2023-04-15T16:57:50.653Z,13.18
2023-04-15T17:00:20.874Z,12.88
2023-04-15T17:02:48.692Z,13.00
2023-04-15T17:05:16.203Z,12.91
2023-04-15T17:07:43.998Z,12.84
2023-04-15T17:10:13.779Z,12.78
2023-04-15T17:12:41.733Z,12.70
2023-04-15T17:15:09.960Z,12.47
2023-04-15T17:17:37.426Z,12.41
2023-04-15T17:20:05.610Z,12.43
2023-04-15T17:22:34.197Z,12.40
2023-04-15T17:25:01.978Z,12.36
2023-04-15T17:27:30.226Z,12.34
2023-04-15T17:29:58.007Z,12.05
2023-04-15T17:32:30.677Z,12.18
2023-04-15T17:34:58.523Z,11.83
2023-04-15T17:37:26.794Z,12.07
2023-04-15T17:39:54.345Z,12.01
2023-04-15T17:42:22.980Z,11.84
2023-04-15T17:44:51.093Z,11.74
2023-04-15T17:47:19.217Z,11.71
2023-04-15T17:49:47.754Z,11.69
2023-04-15T17:52:15.634Z,11.60
2023-04-15T17:54:43.329Z,11.56
2023-04-15T17:57:11.405Z,11.46
2023-04-15T17:59:43.867Z,11.39
2023-04-15T18:02:12.118Z,11.36
2023-04-15T18:04:40.583Z,11.30
2023-04-15T18:07:08.486Z,11.27
2023-04-15T18:09:36.711Z,11.27
2023-04-15T18:12:07.534Z,11.26
2023-04-15T18:14:36.341Z,11.25
2023-04-15T18:17:04.893Z,10.97
2023-04-15T18:19:32.952Z,11.20
2023-04-15T18:22:00.964Z,11.13
2023-04-15T18:24:30.041Z,10.81
2023-04-15T18:26:57.714Z,10.77
2023-04-15T18:29:25.612Z,10.98
2023-04-15T18:31:54.582Z,10.90
2023-04-15T18:34:22.140Z,10.86
2023-04-15T18:36:49.899Z,10.30
2023-04-15T18:39:18.032Z,10.81
2023-04-15T18:41:46.066Z,10.76
2023-04-15T18:44:13.547Z,10.76
2023-04-15T18:46:41.527Z,10.76
2023-04-15T18:49:09.982Z,10.74
2023-04-15T18:51:38.542Z,10.74
2023-04-15T18:54:06.624Z,10.74
2023-04-15T18:56:34.917Z,10.74
2023-04-15T18:59:09.533Z,10.73
2023-04-15T19:01:51.614Z,10.61
2023-04-15T19:04:20.507Z,10.66
2023-04-15T19:06:48.410Z,10.60
2023-04-15T19:09:16.920Z,10.54
2023-04-15T19:11:44.874Z,10.46
2023-04-15T19:14:12.546Z,10.42
2023-04-15T19:16:40.618Z,10.37
2023-04-15T19:19:08.142Z,10.35
2023-04-15T19:21:36.380Z,10.24
2023-04-15T19:24:04.312Z,10.13
2023-04-15T19:26:32.161Z,9.98
2023-04-15T19:28:59.754Z,9.93
2023-04-15T19:31:27.973Z,9.93
2023-04-15T19:33:55.736Z,9.75
2023-04-15T19:36:23.406Z,9.64
2023-04-15T19:38:51.534Z,9.63
2023-04-15T19:41:19.531Z,9.60
2023-04-15T19:43:47.001Z,9.56
2023-04-15T19:46:14.948Z,9.51
2023-04-15T19:48:43.029Z,9.18
2023-04-15T19:51:12.353Z,9.10
2023-04-15T19:53:41.412Z,9.10
2023-04-15T19:56:09.592Z,9.25
2023-04-15T19:58:37.700Z,9.17
2023-04-15T20:01:05.856Z,9.14
2023-04-15T20:03:35.357Z,8.82
2023-04-15T20:06:03.493Z,9.08
2023-04-15T20:08:31.377Z,9.09
2023-04-15T20:11:01.170Z,9.05
2023-04-15T20:13:29.097Z,8.78
2023-04-15T20:15:56.840Z,9.02
2023-04-15T20:18:24.878Z,9.03
2023-04-15T20:20:52.481Z,8.92
2023-04-15T20:23:20.612Z,8.83
2023-04-15T20:25:48.722Z,8.67
2023-04-15T20:28:18.857Z,8.72
2023-04-15T20:30:47.255Z,8.71
2023-04-15T20:33:15.023Z,8.63
2023-04-15T20:35:42.646Z,8.54
2023-04-15T20:38:10.620Z,8.52
2023-04-15T20:40:39.470Z,8.50
2023-04-15T20:43:08.580Z,8.42
2023-04-15T20:45:36.583Z,8.40
2023-04-15T20:48:05.030Z,8.36
2023-04-15T20:50:32.734Z,8.33
2023-04-15T20:53:00.311Z,8.36
2023-04-15T20:55:30.233Z,8.35
2023-04-15T20:57:59.231Z,8.25
2023-04-15T21:00:26.773Z,8.31
2023-04-15T21:02:54.955Z,8.19
2023-04-15T21:05:22.442Z,8.25
2023-04-15T21:07:50.185Z,8.23
2023-04-15T21:10:18.179Z,8.30
2023-04-15T21:12:46.180Z,8.22
2023-04-15T21:15:13.853Z,8.20
2023-04-15T21:17:41.909Z,8.13
2023-04-15T21:20:10.004Z,8.15
2023-04-15T21:22:37.487Z,8.19
2023-04-15T21:25:05.729Z,8.21
2023-04-15T21:27:33.160Z,7.86
2023-04-15T21:30:00.787Z,8.05
2023-04-15T21:32:30.497Z,8.09
2023-04-15T21:34:58.036Z,8.05
2023-04-15T21:37:25.768Z,8.00
2023-04-15T21:39:53.515Z,7.97
2023-04-15T21:42:21.072Z,7.77
2023-04-15T21:44:48.545Z,7.81
2023-04-15T21:47:16.289Z,8.18
2023-04-15T21:49:44.086Z,8.22
2023-04-15T21:52:11.700Z,8.28
2023-04-15T21:54:39.410Z,8.37
2023-04-15T21:57:06.909Z,8.49
2023-04-15T21:59:34.703Z,8.59
2023-04-15T22:02:02.490Z,8.66
2023-04-15T22:04:30.570Z,8.40
2023-04-15T22:07:01.678Z,8.38
2023-04-15T22:09:29.311Z,8.66
2023-04-15T22:11:59.452Z,8.65
2023-04-15T22:14:28.432Z,8.67
2023-04-15T22:16:56.669Z,8.63
2023-04-15T22:19:25.923Z,8.32
2023-04-15T22:21:53.408Z,8.52
2023-04-15T22:24:34.082Z,8.46
2023-04-15T22:27:08.626Z,8.43
2023-04-15T22:29:36.227Z,8.43
2023-04-15T22:32:03.723Z,8.40
2023-04-15T22:34:31.461Z,8.12
2023-04-15T22:36:58.873Z,8.38
2023-04-15T22:39:26.592Z,8.42
2023-04-15T22:41:54.295Z,8.40
2023-04-15T22:44:21.758Z,8.19
2023-04-15T22:46:51.726Z,8.51
2023-04-15T22:49:19.485Z,8.54
2023-04-15T22:51:47.079Z,8.57
2023-04-15T22:54:14.549Z,8.51
2023-04-15T22:56:42.415Z,8.50
2023-04-15T22:59:10.100Z,8.46
2023-04-15T23:01:38.396Z,8.42
2023-04-15T23:04:08.478Z,8.37
2023-04-15T23:06:53.174Z,8.32
2023-04-15T23:09:21.556Z,8.32
2023-04-15T23:11:49.441Z,8.00
2023-04-15T23:14:16.839Z,8.18
2023-04-15T23:16:45.652Z,7.94
2023-04-15T23:19:13.863Z,8.20
2023-04-15T23:21:41.552Z,8.24
2023-04-15T23:24:09.760Z,8.16
2023-04-15T23:26:37.210Z,8.14
2023-04-15T23:29:05.108Z,8.18
2023-04-15T23:31:33.124Z,8.17
2023-04-15T23:34:01.146Z,8.17
2023-04-15T23:36:28.642Z,7.97
2023-04-15T23:38:56.344Z,8.16
2023-04-15T23:41:23.828Z,8.16
2023-04-15T23:43:51.478Z,8.12
2023-04-15T23:46:19.229Z,8.09
2023-04-15T23:48:47.872Z,8.02
2023-04-15T23:51:16.536Z,8.01
2023-04-15T23:53:44.666Z,7.68
2023-04-15T23:56:12.043Z,7.88
2023-04-15T23:58:39.553Z,7.80
